createdAt,value
2022-08-17T00:00:55.852Z,44.94
2022-08-17T00:03:29.260Z,44.32
2022-08-17T00:06:03.930Z,44.88
2022-08-17T00:08:37.300Z,44.61
2022-08-17T00:11:11.116Z,44.71
2022-08-17T00:13:46.209Z,44.75
2022-08-17T00:16:19.768Z,44.65
2022-08-17T00:19:01.685Z,44.70
2022-08-17T00:22:31.004Z,44.95
2022-08-17T00:24:22.564Z,44.94
2022-08-17T00:26:52.304Z,44.53
2022-08-17T00:29:19.564Z,44.60
2022-08-17T00:31:46.309Z,44.93
2022-08-17T00:34:12.739Z,45.10
2022-08-17T00:36:39.196Z,45.10
2022-08-17T00:39:05.699Z,44.59
2022-08-17T00:41:32.230Z,44.88
2022-08-17T00:44:03.436Z,44.95
2022-08-17T00:46:33.740Z,44.83
2022-08-17T00:49:00.324Z,45.05
2022-08-17T00:51:31.897Z,45.16
2022-08-17T00:54:06.347Z,44.92
2022-08-17T00:56:37.773Z,45.10
2022-08-17T00:59:06.600Z,45.06
2022-08-17T01:01:33.618Z,44.89
2022-08-17T01:04:02.100Z,44.88
2022-08-17T01:06:30.181Z,44.83
2022-08-17T01:08:59.471Z,45.04
2022-08-17T01:11:27.472Z,44.89
2022-08-17T01:13:53.933Z,45.40
2022-08-17T01:16:24.792Z,44.89
2022-08-17T01:18:54.894Z,45.03
2022-08-17T01:21:46.815Z,45.15
2022-08-17T01:24:13.539Z,44.80
2022-08-17T01:26:41.956Z,44.80
2022-08-17T01:29:09.193Z,44.86
2022-08-17T01:31:52.659Z,45.09
2022-08-17T01:34:20.230Z,45.03
2022-08-17T01:36:49.144Z,45.11
2022-08-17T01:39:27.031Z,45.20
2022-08-17T01:41:58.616Z,45.13
2022-08-17T01:44:27.009Z,45.23
2022-08-17T01:46:54.147Z,45.16
2022-08-17T01:49:20.743Z,45.12
2022-08-17T01:51:47.425Z,45.03
2022-08-17T01:54:18.557Z,45.20
2022-08-17T01:56:49.463Z,45.03
2022-08-17T01:59:18.234Z,45.22
2022-08-17T02:01:45.790Z,45.22
2022-08-17T02:04:12.856Z,45.12
2022-08-17T02:06:53.138Z,45.17
2022-08-17T02:09:23.343Z,45.03
2022-08-17T02:11:53.309Z,45.21
2022-08-17T02:14:20.817Z,44.98
2022-08-17T02:16:47.285Z,45.12
2022-08-17T02:19:15.980Z,45.23
2022-08-17T02:21:47.047Z,45.02
2022-08-17T02:25:01.018Z,45.45
2022-08-17T02:27:11.437Z,45.18
2022-08-17T02:29:38.091Z,45.06
2022-08-17T02:32:05.198Z,45.32
2022-08-17T02:34:32.629Z,45.30
2022-08-17T02:36:59.215Z,45.09
2022-08-17T02:39:25.718Z,45.12
2022-08-17T02:42:01.509Z,45.00
2022-08-17T02:44:35.446Z,45.34
2022-08-17T02:47:08.515Z,45.06
2022-08-17T02:49:35.469Z,45.05
2022-08-17T02:52:07.053Z,45.56
2022-08-17T02:54:40.471Z,45.15
2022-08-17T02:57:09.682Z,45.44
2022-08-17T02:59:36.282Z,45.46
2022-08-17T03:02:04.727Z,45.63
2022-08-17T03:04:31.299Z,45.16
2022-08-17T03:07:01.790Z,45.19
2022-08-17T03:09:28.288Z,45.46
2022-08-17T03:11:55.885Z,45.50
2022-08-17T03:14:26.200Z,45.31
2022-08-17T03:16:53.710Z,45.51
2022-08-17T03:19:20.755Z,45.27
2022-08-17T03:21:47.288Z,45.53
2022-08-17T03:24:21.938Z,45.15
2022-08-17T03:26:55.589Z,45.22
2022-08-17T03:29:22.069Z,45.44
2022-08-17T03:31:49.397Z,45.67
2022-08-17T03:34:17.077Z,45.16
2022-08-17T03:36:43.869Z,45.42
2022-08-17T03:39:10.646Z,45.61
2022-08-17T03:41:38.799Z,45.42
2022-08-17T03:44:05.322Z,45.52
2022-08-17T03:46:50.560Z,45.28
2022-08-17T03:49:35.803Z,45.46
2022-08-17T03:52:20.811Z,45.30
2022-08-17T03:55:05.886Z,45.55
2022-08-17T03:57:32.482Z,45.59
2022-08-17T03:59:59.769Z,45.43
2022-08-17T04:02:32.844Z,45.70
2022-08-17T04:05:00.242Z,45.81
2022-08-17T04:07:29.469Z,45.57
2022-08-17T04:09:57.903Z,45.76
2022-08-17T04:12:30.699Z,45.70
2022-08-17T04:14:57.953Z,45.36
2022-08-17T04:17:27.426Z,45.29
2022-08-17T04:19:55.416Z,45.28
2022-08-17T04:22:30.647Z,45.48
2022-08-17T04:24:58.933Z,45.63
2022-08-17T04:27:25.445Z,45.39
2022-08-17T04:29:54.744Z,45.53
2022-08-17T04:32:58.550Z,45.26
2022-08-17T04:35:10.162Z,45.37
2022-08-17T04:37:36.678Z,45.73
2022-08-17T04:40:22.729Z,45.80
2022-08-17T04:43:18.660Z,45.48
2022-08-17T04:45:56.281Z,45.66
2022-08-17T04:48:33.357Z,45.87
2022-08-17T04:51:06.163Z,45.60
2022-08-17T04:53:32.714Z,45.78
2022-08-17T04:55:59.257Z,45.67
2022-08-17T04:58:25.925Z,45.65
2022-08-17T05:00:52.772Z,45.72
2022-08-17T05:03:22.341Z,45.78
2022-08-17T05:05:49.792Z,46.13
2022-08-17T05:08:18.992Z,45.75
2022-08-17T05:10:46.943Z,45.91
2022-08-17T05:13:25.882Z,45.94
2022-08-17T05:15:55.595Z,45.61
2022-08-17T05:18:22.300Z,46.33
2022-08-17T05:20:51.080Z,46.11
2022-08-17T05:23:20.965Z,46.20
2022-08-17T05:25:50.454Z,46.06
2022-08-17T05:28:19.654Z,45.85
2022-08-17T05:30:50.871Z,45.83
2022-08-17T05:33:23.715Z,45.93
2022-08-17T05:35:52.076Z,46.21
2022-08-17T05:38:21.710Z,45.82
2022-08-17T05:40:48.976Z,45.90
2022-08-17T05:43:27.608Z,46.05
2022-08-17T05:46:12.860Z,45.72
2022-08-17T05:48:51.500Z,45.64
2022-08-17T05:51:37.242Z,45.47
2022-08-17T05:54:29.030Z,45.94
2022-08-17T05:57:15.388Z,45.50
2022-08-17T06:00:20.210Z,45.52
2022-08-17T06:03:11.936Z,45.53
2022-08-17T06:06:05.154Z,45.48
2022-08-17T06:08:34.919Z,45.31
2022-08-17T06:11:35.330Z,45.70
2022-08-17T06:14:15.985Z,45.53
2022-08-17T06:16:46.207Z,45.57
2022-08-17T06:19:32.038Z,45.50
2022-08-17T06:21:59.598Z,45.59
2022-08-17T06:24:37.718Z,45.87
2022-08-17T06:27:19.917Z,45.51
2022-08-17T06:29:59.703Z,46.07
2022-08-17T06:32:26.595Z,45.67
2022-08-17T06:34:53.532Z,45.75
2022-08-17T06:37:27.267Z,45.71
2022-08-17T06:40:03.650Z,45.68
2022-08-17T06:43:15.269Z,45.92
2022-08-17T07:00:34.261Z,45.88
2022-08-17T07:08:35.586Z,46.39
2022-08-17T07:12:42.183Z,46.21
2022-08-17T07:20:33.718Z,46.51
2022-08-17T07:23:11.616Z,46.93
2022-08-17T07:26:10.075Z,46.96
2022-08-17T07:28:40.285Z,46.65
2022-08-17T07:31:07.596Z,47.10
2022-08-17T07:33:36.803Z,47.16
2022-08-17T07:36:06.053Z,47.15
2022-08-17T07:38:35.447Z,47.29
2022-08-17T07:41:12.514Z,47.08
2022-08-17T07:43:41.994Z,47.27
2022-08-17T07:47:03.809Z,47.40
2022-08-17T07:49:47.886Z,47.15
2022-08-17T07:52:50.875Z,47.69
2022-08-17T07:55:31.039Z,47.61
2022-08-17T07:57:58.904Z,47.62
2022-08-17T08:00:31.678Z,47.34
2022-08-17T08:03:26.210Z,47.71
2022-08-17T08:06:01.282Z,47.73
2022-08-17T08:08:43.571Z,47.52
2022-08-17T08:11:15.241Z,47.74
2022-08-17T08:13:45.471Z,47.45
2022-08-17T08:16:26.376Z,47.86
2022-08-17T08:18:57.722Z,48.17
2022-08-17T08:21:47.507Z,48.11
2022-08-17T08:24:35.437Z,48.31
2022-08-17T08:27:21.132Z,48.02
2022-08-17T08:29:53.930Z,47.61
2022-08-17T08:32:31.238Z,47.52
2022-08-17T08:35:06.668Z,47.85
2022-08-17T08:37:43.172Z,48.19
2022-08-17T08:40:34.812Z,48.31
2022-08-17T08:43:07.209Z,48.27
2022-08-17T08:45:46.843Z,48.61
2022-08-17T08:48:52.851Z,48.29
2022-08-17T08:51:25.924Z,47.95
2022-08-17T08:54:05.863Z,48.12
2022-08-17T08:57:22.239Z,48.32
2022-08-17T08:59:58.557Z,48.43
2022-08-17T09:02:53.868Z,48.23
2022-08-17T09:05:58.084Z,48.43
2022-08-17T09:08:33.737Z,48.65
2022-08-17T09:11:26.545Z,49.30
2022-08-17T09:14:21.591Z,48.65
2022-08-17T09:17:16.492Z,48.64
2022-08-17T09:19:48.278Z,48.41
2022-08-17T09:22:32.323Z,48.97
2022-08-17T09:25:04.087Z,48.76
2022-08-17T09:27:37.606Z,48.62
2022-08-17T09:30:10.824Z,48.67
2022-08-17T09:32:55.167Z,48.45
2022-08-17T09:35:40.095Z,48.57
2022-08-17T09:38:34.290Z,48.90
2022-08-17T09:41:19.839Z,48.55
2022-08-17T09:44:22.685Z,48.39
2022-08-17T09:47:03.974Z,47.98
2022-08-17T09:49:33.457Z,48.13
2022-08-17T09:52:08.041Z,48.25
2022-08-17T09:54:39.484Z,48.23
2022-08-17T09:57:32.340Z,47.97
2022-08-17T10:00:11.908Z,48.03
2022-08-17T10:02:58.701Z,48.02
2022-08-17T10:05:43.157Z,48.54
2022-08-17T10:08:40.355Z,48.65
2022-08-17T10:11:48.146Z,48.56
2022-08-17T10:14:55.071Z,48.10
2022-08-17T10:17:30.629Z,47.79
2022-08-17T10:20:09.215Z,47.91
2022-08-17T10:23:07.692Z,48.04
2022-08-17T10:25:57.048Z,47.76
2022-08-17T10:28:30.385Z,47.64
2022-08-17T10:31:30.839Z,47.99
2022-08-17T10:34:12.199Z,47.75
2022-08-17T10:36:55.033Z,48.04
2022-08-17T10:39:24.348Z,47.82
2022-08-17T10:41:56.528Z,47.88
2022-08-17T10:44:44.220Z,47.89
2022-08-17T10:47:19.768Z,47.46
2022-08-17T10:49:54.084Z,47.38
2022-08-17T10:52:21.812Z,47.50
2022-08-17T10:54:51.216Z,47.55
2022-08-17T10:57:27.083Z,47.68
2022-08-17T11:00:00.257Z,47.75
2022-08-17T11:02:40.638Z,47.61
2022-08-17T11:05:29.085Z,47.41
2022-08-17T11:07:58.586Z,47.48
2022-08-17T11:11:09.951Z,47.81
2022-08-17T11:13:55.668Z,47.64
2022-08-17T11:17:00.996Z,47.75
2022-08-17T11:20:05.773Z,48.06
2022-08-17T11:23:10.053Z,47.82
2022-08-17T11:25:46.967Z,47.96
2022-08-17T11:28:23.818Z,47.92
2022-08-17T11:31:07.583Z,48.05
2022-08-17T11:33:34.050Z,48.19
2022-08-17T11:36:34.421Z,48.10
2022-08-17T11:39:13.062Z,48.04
2022-08-17T11:41:55.185Z,48.32
2022-08-17T11:44:51.527Z,48.03
2022-08-17T11:48:09.458Z,48.19
2022-08-17T11:51:18.571Z,47.92
2022-08-17T11:53:45.755Z,48.25
2022-08-17T11:56:33.205Z,48.07
2022-08-17T11:59:22.932Z,48.27
2022-08-17T12:01:49.480Z,48.83
2022-08-17T12:04:34.242Z,48.66
2022-08-17T12:07:10.768Z,49.05
2022-08-17T12:09:45.561Z,49.05
2022-08-17T12:12:19.447Z,48.79
2022-08-17T12:17:42.748Z,49.05
2022-08-17T12:20:30.866Z,49.16
2022-08-17T12:23:03.496Z,49.11
2022-08-17T12:25:56.598Z,49.05
2022-08-17T12:28:28.852Z,49.33
2022-08-17T12:31:00.438Z,49.13
2022-08-17T12:33:28.874Z,49.09
2022-08-17T12:35:59.688Z,49.28
2022-08-17T12:38:33.193Z,49.16
2022-08-17T12:41:21.814Z,49.92
2022-08-17T12:44:02.164Z,49.63
2022-08-17T12:46:33.467Z,49.30
2022-08-17T12:49:14.468Z,49.28
2022-08-17T12:51:46.512Z,49.18
2022-08-17T12:54:25.952Z,49.18
2022-08-17T12:56:52.996Z,49.16
2022-08-17T12:59:29.763Z,49.57
2022-08-17T13:01:57.380Z,49.34
2022-08-17T13:04:24.137Z,49.24
2022-08-17T13:06:59.583Z,49.64
2022-08-17T13:09:35.476Z,49.69
2022-08-17T13:12:02.927Z,49.40
2022-08-17T13:14:31.628Z,49.34
2022-08-17T13:17:02.393Z,49.92
2022-08-17T13:19:40.817Z,49.83
2022-08-17T13:22:11.311Z,49.86
2022-08-17T13:24:38.723Z,49.67
2022-08-17T13:27:09.843Z,49.82
2022-08-17T13:29:45.154Z,49.68
2022-08-17T13:32:43.621Z,49.65
2022-08-17T13:35:39.882Z,49.70
2022-08-17T13:38:34.712Z,49.89
2022-08-17T13:41:01.326Z,49.68
2022-08-17T13:43:39.621Z,49.81
2022-08-17T13:46:31.162Z,49.96
2022-08-17T13:49:01.324Z,49.76
2022-08-17T13:51:43.804Z,49.88
2022-08-17T13:54:37.521Z,50.19
2022-08-17T13:57:07.328Z,50.01
2022-08-17T14:00:30.619Z,50.01
2022-08-17T14:03:01.951Z,49.67
2022-08-17T14:05:28.958Z,50.06
2022-08-17T14:07:58.424Z,50.24
2022-08-17T14:10:25.560Z,49.56
2022-08-17T14:12:52.874Z,49.68
2022-08-17T14:15:22.430Z,50.06
2022-08-17T14:17:49.659Z,50.00
2022-08-17T14:20:19.934Z,49.92
2022-08-17T14:22:53.439Z,50.18
2022-08-17T14:25:23.939Z,49.95
2022-08-17T14:27:52.808Z,49.73
2022-08-17T14:30:23.101Z,50.13
2022-08-17T14:32:51.717Z,50.07
2022-08-17T14:35:19.295Z,50.17
2022-08-17T14:37:45.754Z,50.21
2022-08-17T14:40:15.903Z,49.98
2022-08-17T14:42:44.514Z,50.14
2022-08-17T14:45:29.839Z,50.17
2022-08-17T14:48:04.505Z,50.13
2022-08-17T14:50:32.042Z,49.94
2022-08-17T14:53:03.774Z,50.06
2022-08-17T14:55:31.040Z,50.10
2022-08-17T14:57:59.037Z,50.00
2022-08-17T15:00:26.704Z,50.37
2022-08-17T15:02:57.883Z,49.98
2022-08-17T15:05:27.566Z,50.00
2022-08-17T15:07:54.460Z,50.21
2022-08-17T15:10:21.101Z,50.19
2022-08-17T15:12:48.077Z,50.03
2022-08-17T15:15:16.955Z,49.96
2022-08-17T15:17:45.946Z,50.07
2022-08-17T15:20:19.345Z,49.81
2022-08-17T15:22:49.521Z,49.80
2022-08-17T15:25:19.595Z,50.02
2022-08-17T15:27:46.255Z,50.07
2022-08-17T15:30:13.227Z,49.69
2022-08-17T15:32:50.695Z,50.13
2022-08-17T15:35:19.364Z,50.26
2022-08-17T15:37:54.836Z,50.02
2022-08-17T15:40:21.307Z,50.21
2022-08-17T15:42:47.811Z,50.31
2022-08-17T15:45:16.469Z,50.23
2022-08-17T15:47:43.271Z,50.44
2022-08-17T15:50:10.764Z,50.57
2022-08-17T15:52:40.282Z,50.93
2022-08-17T15:55:11.080Z,50.71
2022-08-17T15:57:40.636Z,50.47
2022-08-17T16:00:09.403Z,50.69
2022-08-17T16:03:45.756Z,50.29
2022-08-17T16:05:28.453Z,50.36
2022-08-17T16:07:59.500Z,50.57
2022-08-17T16:10:34.163Z,50.47
2022-08-17T16:13:02.030Z,50.55
2022-08-17T16:15:30.918Z,50.70
2022-08-17T16:17:57.618Z,50.46
2022-08-17T16:20:27.231Z,50.52
2022-08-17T16:22:55.780Z,50.25
2022-08-17T16:25:52.486Z,50.36
2022-08-17T16:28:16.000Z,50.30
2022-08-17T16:30:42.850Z,50.43
2022-08-17T16:34:15.805Z,50.20
2022-08-17T16:36:34.373Z,49.97
2022-08-17T16:39:01.431Z,49.92
2022-08-17T16:41:39.980Z,49.98
2022-08-17T16:44:06.488Z,49.83
2022-08-17T16:46:33.488Z,49.92
2022-08-17T16:49:02.827Z,49.70
2022-08-17T16:51:29.334Z,49.99
2022-08-17T16:53:59.230Z,50.03
2022-08-17T16:56:26.315Z,49.99
2022-08-17T16:58:53.541Z,49.93
2022-08-17T17:01:21.340Z,49.81
2022-08-17T17:03:57.686Z,50.34
2022-08-17T17:06:40.124Z,49.96
2022-08-17T17:09:12.089Z,50.20
2022-08-17T17:11:44.725Z,50.25
2022-08-17T17:14:20.311Z,50.27
2022-08-17T17:17:01.617Z,50.34
2022-08-17T17:19:38.302Z,50.13
2022-08-17T17:22:20.203Z,50.27
2022-08-17T17:25:13.674Z,50.05
2022-08-17T17:28:15.918Z,50.05
2022-08-17T17:30:56.731Z,50.14
2022-08-17T17:33:40.473Z,50.05
2022-08-17T17:36:24.580Z,50.18
2022-08-17T17:39:36.197Z,50.39
2022-08-17T17:42:07.597Z,50.52
2022-08-17T17:44:37.959Z,50.28
2022-08-17T17:47:05.283Z,50.40
2022-08-17T17:49:40.157Z,50.00
2022-08-17T17:52:20.964Z,50.06
2022-08-17T17:55:08.936Z,50.23
2022-08-17T17:57:35.387Z,50.10
2022-08-17T18:00:08.333Z,50.65
2022-08-17T18:02:57.185Z,50.17
2022-08-17T18:05:57.233Z,50.35
2022-08-17T18:08:36.083Z,50.27
2022-08-17T18:11:36.190Z,50.49
2022-08-17T18:14:47.311Z,50.76
2022-08-17T18:17:14.521Z,50.46
2022-08-17T18:19:41.484Z,50.46
2022-08-17T18:22:14.407Z,50.45
2022-08-17T18:24:45.869Z,50.24
2022-08-17T18:27:32.737Z,50.39
2022-08-17T18:30:08.621Z,50.36
2022-08-17T18:32:44.372Z,50.05
2022-08-17T18:35:10.757Z,50.00
2022-08-17T18:37:47.491Z,50.37
2022-08-17T18:40:16.986Z,50.34
2022-08-17T18:43:08.974Z,50.50
2022-08-17T18:45:51.457Z,50.59
2022-08-17T18:48:20.507Z,50.37
2022-08-17T18:50:47.803Z,50.08
2022-08-17T18:53:33.386Z,50.27
2022-08-17T18:56:27.047Z,50.35
2022-08-17T18:59:02.557Z,49.96
2022-08-17T19:01:58.202Z,50.31
2022-08-17T19:04:35.186Z,50.43
2022-08-17T19:07:10.926Z,50.40
2022-08-17T19:09:43.995Z,50.03
2022-08-17T19:12:27.126Z,50.42
2022-08-17T19:14:56.329Z,50.36
2022-08-17T19:17:32.337Z,50.12
2022-08-17T19:20:07.093Z,50.06
2022-08-17T19:23:07.934Z,50.30
2022-08-17T19:25:40.343Z,50.50
2022-08-17T19:28:22.232Z,50.56
2022-08-17T19:30:55.394Z,50.07
2022-08-17T19:33:22.289Z,50.00
2022-08-17T19:36:21.519Z,50.43
2022-08-17T19:39:00.270Z,50.31
2022-08-17T19:41:32.466Z,50.44
2022-08-17T19:44:11.268Z,50.07
2022-08-17T19:47:01.760Z,50.45
2022-08-17T19:49:46.595Z,50.19
2022-08-17T19:52:24.088Z,50.14
2022-08-17T19:55:04.567Z,50.17
2022-08-17T19:57:43.843Z,50.26
2022-08-17T20:00:19.040Z,50.28
2022-08-17T20:03:07.973Z,50.08
2022-08-17T20:06:11.031Z,50.33
2022-08-17T20:08:39.218Z,50.54
2022-08-17T20:11:18.507Z,50.51
2022-08-17T20:14:03.173Z,50.29
2022-08-17T20:16:33.073Z,50.39
2022-08-17T20:19:31.046Z,50.41
2022-08-17T20:22:06.178Z,50.40
2022-08-17T20:24:40.708Z,50.47
2022-08-17T20:27:29.476Z,50.46
2022-08-17T20:30:06.864Z,50.00
2022-08-17T20:32:38.195Z,50.55
2022-08-17T20:35:17.632Z,50.43
2022-08-17T20:37:59.712Z,50.29
2022-08-17T20:40:30.634Z,50.48
2022-08-17T20:42:58.307Z,50.07
2022-08-17T20:45:26.093Z,50.30
2022-08-17T20:48:36.083Z,50.28
2022-08-17T20:50:57.437Z,50.18
2022-08-17T20:53:53.453Z,50.07
2022-08-17T20:56:44.894Z,50.43
2022-08-17T20:59:20.507Z,50.03
2022-08-17T21:02:06.649Z,50.26
2022-08-17T21:04:49.708Z,50.44
2022-08-17T21:07:30.291Z,50.14
2022-08-17T21:10:21.729Z,50.37
2022-08-17T21:12:53.279Z,50.10
2022-08-17T21:15:22.590Z,50.52
2022-08-17T21:18:06.576Z,50.62
2022-08-17T21:20:41.921Z,50.31
2022-08-17T21:23:41.053Z,50.87
2022-08-17T21:26:29.674Z,50.62
2022-08-17T21:29:30.831Z,50.50
2022-08-17T21:31:59.076Z,50.39
2022-08-17T21:34:30.556Z,50.34
2022-08-17T21:37:19.739Z,50.25
2022-08-17T21:39:51.883Z,50.56
2022-08-17T21:42:24.985Z,50.42
2022-08-17T21:44:57.912Z,50.75
2022-08-17T21:47:27.972Z,50.54
2022-08-17T21:49:56.143Z,50.59
2022-08-17T21:52:26.788Z,50.43
2022-08-17T21:54:57.511Z,50.34
2022-08-17T21:57:27.658Z,50.21
2022-08-17T21:59:58.015Z,50.31
2022-08-17T22:02:43.275Z,50.43
2022-08-17T22:05:14.003Z,50.21
2022-08-17T22:07:47.710Z,50.26
2022-08-17T22:10:32.685Z,50.40
2022-08-17T22:13:17.301Z,50.55
2022-08-17T22:16:15.687Z,50.43
2022-08-17T22:18:57.516Z,50.54
2022-08-17T22:21:24.601Z,50.78
2022-08-17T22:24:15.291Z,50.48
2022-08-17T22:27:02.838Z,50.67
2022-08-17T22:29:58.219Z,50.29
2022-08-17T22:32:34.347Z,50.38
2022-08-17T22:35:33.108Z,50.35
2022-08-17T22:38:17.933Z,50.42
2022-08-17T22:40:53.781Z,50.84
2022-08-17T22:43:25.949Z,50.31
2022-08-17T22:45:55.533Z,50.37
2022-08-17T22:48:27.193Z,50.60
2022-08-17T22:51:13.843Z,50.36
2022-08-17T22:54:34.210Z,50.68
2022-08-17T22:57:23.503Z,50.26
2022-08-17T22:59:53.886Z,50.41
2022-08-17T23:02:29.217Z,50.54
2022-08-17T23:05:16.676Z,50.62
2022-08-17T23:07:45.536Z,50.35
2022-08-17T23:10:13.829Z,50.72
2022-08-17T23:12:40.605Z,50.86
2022-08-17T23:15:16.287Z,50.26
2022-08-17T23:17:43.253Z,50.34
2022-08-17T23:20:13.915Z,50.33
2022-08-17T23:22:52.208Z,50.45
2022-08-17T23:25:27.964Z,50.29
2022-08-17T23:27:55.683Z,50.30
2022-08-17T23:30:25.329Z,50.47
2022-08-17T23:32:54.325Z,50.56
2022-08-17T23:35:39.917Z,50.25
2022-08-17T23:38:12.286Z,50.52
2022-08-17T23:40:40.160Z,50.68
2022-08-17T23:43:23.732Z,50.54
2022-08-17T23:45:53.197Z,50.38
2022-08-17T23:48:28.432Z,50.68
2022-08-17T23:51:14.712Z,50.78
2022-08-17T23:53:47.215Z,50.73
2022-08-17T23:56:14.606Z,50.67
2022-08-17T23:58:42.621Z,50.68
